createdAt,value
2022-11-21T00:01:25.539Z,72.44
2022-11-21T00:03:53.333Z,72.07
2022-11-21T00:06:21.866Z,70.95
2022-11-21T00:08:49.536Z,71.33
2022-11-21T00:11:17.369Z,73.09
2022-11-21T00:13:45.162Z,73.12
2022-11-21T00:16:14.833Z,74.96
2022-11-21T00:18:44.116Z,76.61
2022-11-21T00:21:14.152Z,75.87
2022-11-21T00:23:42.747Z,75.31
2022-11-21T00:26:11.376Z,75.65
2022-11-21T00:28:39.372Z,76.46
2022-11-21T00:31:07.514Z,75.30
2022-11-21T00:33:35.700Z,72.72
2022-11-21T00:36:09.861Z,72.93
2022-11-21T00:38:37.900Z,73.89
2022-11-21T00:41:05.749Z,74.06
2022-11-21T00:43:33.212Z,74.94
2022-11-21T00:46:02.786Z,74.41
2022-11-21T00:48:31.696Z,74.05
2022-11-21T00:51:00.640Z,74.20
2022-11-21T00:53:29.170Z,73.65
2022-11-21T00:55:56.596Z,74.33
2022-11-21T00:58:23.920Z,72.44
2022-11-21T01:00:51.574Z,71.47
2022-11-21T01:03:19.136Z,71.65
2022-11-21T01:05:46.480Z,71.76
2022-11-21T01:08:14.067Z,74.19
2022-11-21T01:10:41.406Z,72.92
2022-11-21T01:13:08.795Z,73.29
2022-11-21T01:15:36.472Z,74.96
2022-11-21T01:18:03.972Z,74.05
2022-11-21T01:20:31.282Z,74.78
2022-11-21T01:22:58.862Z,76.15
2022-11-21T01:25:26.250Z,75.36
2022-11-21T01:27:53.566Z,76.24
2022-11-21T01:30:21.283Z,76.69
2022-11-21T01:32:50.066Z,76.13
2022-11-21T01:35:18.014Z,76.68
2022-11-21T01:37:49.341Z,79.05
2022-11-21T01:40:16.815Z,78.31
2022-11-21T01:42:57.563Z,77.26
2022-11-21T01:45:54.888Z,74.81
2022-11-21T01:48:29.994Z,75.58
2022-11-21T01:51:00.727Z,74.60
2022-11-21T01:53:28.146Z,73.10
2022-11-21T01:55:55.526Z,71.51
2022-11-21T01:58:23.907Z,72.71
2022-11-21T02:00:51.242Z,75.54
2022-11-21T02:03:21.881Z,75.93
2022-11-21T02:05:49.572Z,75.31
2022-11-21T02:08:20.938Z,74.30
2022-11-21T02:11:43.912Z,73.60
2022-11-21T02:14:11.952Z,71.54
2022-11-21T02:16:40.014Z,73.75
2022-11-21T02:19:11.035Z,74.96
2022-11-21T02:22:00.521Z,76.16
2022-11-21T02:24:40.166Z,75.20
2022-11-21T02:27:07.530Z,74.34
2022-11-21T02:29:35.242Z,71.28
2022-11-21T02:32:06.343Z,70.25
2022-11-21T02:34:33.845Z,73.64
2022-11-21T02:37:02.197Z,74.94
2022-11-21T02:39:33.482Z,73.38
2022-11-21T02:42:10.189Z,71.84
2022-11-21T02:44:49.623Z,73.11
2022-11-21T02:47:22.511Z,73.65
2022-11-21T02:50:03.640Z,72.34
2022-11-21T02:52:31.231Z,72.58
2022-11-21T02:54:58.591Z,71.91
2022-11-21T02:57:25.916Z,73.97
2022-11-21T02:59:53.482Z,74.45
2022-11-21T03:02:20.791Z,77.28
2022-11-21T03:04:48.220Z,77.41
2022-11-21T03:07:15.908Z,77.44
2022-11-21T03:09:43.268Z,77.58
2022-11-21T03:12:10.623Z,75.73
2022-11-21T03:14:38.225Z,74.62
2022-11-21T03:17:05.580Z,72.49
2022-11-21T03:19:32.894Z,72.11
2022-11-21T03:22:00.449Z,73.83
2022-11-21T03:24:28.046Z,74.29
2022-11-21T03:26:55.542Z,72.61
2022-11-21T03:29:23.195Z,73.24
2022-11-21T03:31:50.550Z,74.77
2022-11-21T03:34:17.886Z,74.96
2022-11-21T03:36:45.439Z,74.82
2022-11-21T03:39:12.770Z,75.20
2022-11-21T03:41:40.101Z,75.99
2022-11-21T03:44:09.717Z,75.54
2022-11-21T03:46:39.003Z,75.83
2022-11-21T03:49:07.172Z,73.99
2022-11-21T03:51:35.201Z,70.45
2022-11-21T03:54:03.158Z,70.71
2022-11-21T03:56:30.848Z,70.28
2022-11-21T03:58:58.826Z,70.91
2022-11-21T04:01:26.342Z,72.87
2022-11-21T04:03:53.936Z,71.60
2022-11-21T04:06:22.670Z,71.60
2022-11-21T04:08:50.297Z,72.00
2022-11-21T04:11:18.134Z,71.57
2022-11-21T04:13:45.421Z,73.00
2022-11-21T04:16:12.760Z,74.59
2022-11-21T04:18:40.319Z,74.03
2022-11-21T04:21:08.307Z,74.30
2022-11-21T04:23:35.990Z,73.04
2022-11-21T04:26:03.840Z,74.22
2022-11-21T04:28:31.505Z,76.32
2022-11-21T04:31:06.994Z,77.90
2022-11-21T04:33:40.582Z,77.58
2022-11-21T04:36:08.499Z,76.19
2022-11-21T04:38:36.228Z,76.40
2022-11-21T04:41:04.718Z,75.69
2022-11-21T04:43:32.048Z,75.54
2022-11-21T04:45:59.356Z,75.69
2022-11-21T04:48:26.934Z,76.08
2022-11-21T04:50:54.240Z,75.93
2022-11-21T04:53:21.556Z,76.94
2022-11-21T04:55:49.153Z,75.37
2022-11-21T04:58:16.457Z,75.67
2022-11-21T05:00:43.800Z,75.10
2022-11-21T05:03:11.527Z,74.36
2022-11-21T05:05:38.857Z,75.00
2022-11-21T05:08:06.159Z,73.65
2022-11-21T05:10:53.696Z,73.64
2022-11-21T05:13:20.999Z,73.20
2022-11-21T05:15:51.666Z,73.14
2022-11-21T05:18:20.037Z,74.67
2022-11-21T05:20:47.514Z,74.61
2022-11-21T05:23:15.093Z,75.24
2022-11-21T05:25:42.428Z,74.36
2022-11-21T05:28:09.743Z,73.37
2022-11-21T05:30:37.776Z,73.26
2022-11-21T05:33:05.477Z,74.60
2022-11-21T05:35:32.913Z,73.99
2022-11-21T05:38:00.502Z,75.57
2022-11-21T05:40:27.820Z,75.12
2022-11-21T05:43:13.472Z,75.23
2022-11-21T05:45:41.047Z,76.06
2022-11-21T05:48:08.425Z,76.77
2022-11-21T05:50:36.509Z,76.91
2022-11-21T05:53:04.861Z,76.40
2022-11-21T05:55:34.185Z,74.29
2022-11-21T05:58:01.845Z,74.75
2022-11-21T06:00:29.587Z,75.61
2022-11-21T06:03:15.919Z,72.60
2022-11-21T06:05:43.294Z,71.45
2022-11-21T06:08:10.847Z,75.78
2022-11-21T06:10:38.191Z,73.47
2022-11-21T06:13:22.067Z,74.40
2022-11-21T06:16:01.414Z,74.81
2022-11-21T06:18:32.020Z,76.83
2022-11-21T06:21:11.800Z,78.44
2022-11-21T06:23:39.195Z,79.09
2022-11-21T06:26:08.497Z,79.29
2022-11-21T06:28:38.089Z,78.00
2022-11-21T06:31:16.255Z,77.55
2022-11-21T06:33:44.214Z,74.57
2022-11-21T06:36:16.503Z,73.89
2022-11-21T06:38:45.250Z,76.84
2022-11-21T06:41:15.505Z,75.29
2022-11-21T06:43:43.371Z,75.83
2022-11-21T06:46:11.625Z,76.60
2022-11-21T06:48:39.156Z,75.40
2022-11-21T06:51:08.629Z,75.73
2022-11-21T06:53:36.199Z,75.39
2022-11-21T06:56:03.953Z,80.53
2022-11-21T06:58:31.807Z,80.02
2022-11-21T07:01:07.329Z,79.67
2022-11-21T07:03:35.008Z,78.65
2022-11-21T07:06:05.658Z,77.15
2022-11-21T07:08:35.398Z,75.76
2022-11-21T07:11:24.728Z,78.15
2022-11-21T07:13:53.013Z,77.65
2022-11-21T07:16:20.629Z,80.53
2022-11-21T07:18:48.020Z,81.22
2022-11-21T07:21:15.332Z,81.16
2022-11-21T07:23:43.128Z,81.02
2022-11-21T07:26:10.761Z,77.62
2022-11-21T07:28:38.615Z,76.66
2022-11-21T07:31:12.886Z,77.27
2022-11-21T07:33:43.217Z,76.46
2022-11-21T07:36:12.191Z,76.70
2022-11-21T07:38:41.336Z,75.94
2022-11-21T07:41:09.628Z,74.51
2022-11-21T07:43:37.202Z,74.39
2022-11-21T07:46:04.522Z,74.30
2022-11-21T07:48:31.833Z,75.27
2022-11-21T07:50:59.391Z,75.70
2022-11-21T07:53:26.716Z,78.15
2022-11-21T07:55:54.027Z,77.35
2022-11-21T07:58:21.627Z,78.07
2022-11-21T08:00:48.933Z,76.84
2022-11-21T08:03:18.063Z,76.60
2022-11-21T08:05:45.418Z,75.61
2022-11-21T08:08:13.349Z,75.56
2022-11-21T08:10:43.916Z,75.92
2022-11-21T08:13:12.027Z,77.02
2022-11-21T08:15:39.767Z,76.18
2022-11-21T08:18:11.842Z,76.83
2022-11-21T08:20:39.351Z,78.54
2022-11-21T08:23:07.276Z,77.15
2022-11-21T08:25:39.992Z,77.33
2022-11-21T08:28:08.741Z,77.49
2022-11-21T08:30:36.998Z,76.09
2022-11-21T08:33:05.179Z,75.72
2022-11-21T08:35:33.097Z,75.32
2022-11-21T08:38:01.463Z,75.35
2022-11-21T08:40:30.099Z,76.46
2022-11-21T08:43:08.098Z,75.77
2022-11-21T08:45:37.213Z,74.08
2022-11-21T08:48:09.681Z,74.86
2022-11-21T08:50:37.279Z,74.54
2022-11-21T08:53:05.161Z,75.65
2022-11-21T08:55:34.461Z,74.55
2022-11-21T08:58:02.518Z,73.64
2022-11-21T09:00:30.296Z,73.25
2022-11-21T09:02:57.705Z,76.35
2022-11-21T09:05:25.027Z,75.98
2022-11-21T09:07:58.811Z,76.34
2022-11-21T09:10:26.800Z,76.50
2022-11-21T09:12:54.467Z,77.67
2022-11-21T09:15:40.203Z,77.58
2022-11-21T09:18:08.219Z,78.90
2022-11-21T09:20:40.672Z,74.67
2022-11-21T09:23:10.105Z,74.79
2022-11-21T09:25:37.623Z,74.32
2022-11-21T09:28:06.867Z,77.67
2022-11-21T09:30:34.767Z,78.77
2022-11-21T09:33:05.953Z,77.57
2022-11-21T09:35:33.574Z,77.44
2022-11-21T09:38:00.936Z,76.37
2022-11-21T09:40:31.915Z,76.34
2022-11-21T09:43:06.622Z,77.25
2022-11-21T09:45:59.923Z,76.52
2022-11-21T09:48:35.091Z,77.22
2022-11-21T09:51:12.082Z,76.61
2022-11-21T09:53:53.141Z,76.05
2022-11-21T09:56:23.612Z,76.44
2022-11-21T09:59:07.608Z,75.69
2022-11-21T10:01:35.815Z,78.29
2022-11-21T10:04:04.060Z,75.46
2022-11-21T10:06:47.318Z,75.70
2022-11-21T10:09:34.429Z,77.01
2022-11-21T10:12:35.554Z,77.88
2022-11-21T10:15:45.003Z,75.79
2022-11-21T10:18:33.010Z,78.24
2022-11-21T10:21:30.808Z,77.52
2022-11-21T10:24:08.871Z,75.47
2022-11-21T10:26:48.019Z,73.16
2022-11-21T10:29:22.764Z,71.31
2022-11-21T10:31:51.140Z,71.65
2022-11-21T10:34:21.750Z,71.98
2022-11-21T10:36:52.652Z,70.84
2022-11-21T10:39:23.687Z,69.99
2022-11-21T10:42:24.690Z,71.88
2022-11-21T10:45:11.389Z,71.97
2022-11-21T10:47:38.907Z,70.25
2022-11-21T10:50:09.423Z,70.41
2022-11-21T10:52:44.304Z,70.46
2022-11-21T10:55:13.909Z,70.00
2022-11-21T10:57:45.686Z,71.77
2022-11-21T11:00:13.198Z,69.99
2022-11-21T11:02:42.962Z,70.70
2022-11-21T11:05:16.346Z,68.53
2022-11-21T11:08:00.129Z,67.82
2022-11-21T11:10:28.555Z,68.96
2022-11-21T11:13:44.583Z,68.19
2022-11-21T11:16:17.736Z,70.23
2022-11-21T11:18:58.930Z,69.61
2022-11-21T11:21:31.353Z,71.65
2022-11-21T11:24:14.210Z,69.78
2022-11-21T11:26:48.471Z,68.10
2022-11-21T11:29:19.320Z,68.65
2022-11-21T11:32:01.287Z,69.10
2022-11-21T11:34:39.356Z,69.07
2022-11-21T11:37:17.260Z,71.24
2022-11-21T11:40:23.140Z,70.52
2022-11-21T11:43:31.548Z,70.41
2022-11-21T11:46:57.890Z,71.52
2022-11-21T11:49:59.363Z,71.11
2022-11-21T11:52:34.198Z,69.64
2022-11-21T11:55:07.476Z,70.79
2022-11-21T11:57:36.612Z,70.92
2022-11-21T12:00:13.598Z,70.69
2022-11-21T12:02:57.798Z,70.51
2022-11-21T12:05:26.859Z,69.88
2022-11-21T12:11:53.861Z,66.67
2022-11-21T12:14:54.264Z,66.09
2022-11-21T12:17:32.710Z,65.71
2022-11-21T12:20:04.276Z,65.19
2022-11-21T12:22:32.992Z,65.55
2022-11-21T12:25:00.882Z,65.86
2022-11-21T12:27:33.096Z,66.66
2022-11-21T12:30:31.131Z,65.77
2022-11-21T12:33:08.858Z,63.73
2022-11-21T12:35:47.826Z,64.37
2022-11-21T12:38:15.021Z,64.41
2022-11-21T12:41:31.167Z,66.42
2022-11-21T12:44:14.238Z,66.33
2022-11-21T12:46:57.674Z,66.43
2022-11-21T12:49:55.784Z,68.30
2022-11-21T12:52:52.132Z,68.40
2022-11-21T12:55:39.955Z,65.33
2022-11-21T12:58:33.315Z,63.58
2022-11-21T13:01:07.366Z,62.91
2022-11-21T13:04:13.623Z,62.53
2022-11-21T13:06:43.637Z,62.04
2022-11-21T13:09:16.933Z,63.92
2022-11-21T13:11:59.601Z,63.15
2022-11-21T13:14:31.839Z,63.83
2022-11-21T13:17:01.859Z,65.23
2022-11-21T13:19:44.720Z,63.51
2022-11-21T13:22:50.974Z,66.86
2022-11-21T13:25:39.251Z,66.79
2022-11-21T13:28:18.733Z,69.17
2022-11-21T13:30:52.996Z,67.13
2022-11-21T13:33:45.903Z,66.64
2022-11-21T13:36:35.052Z,67.53
2022-11-21T13:39:03.106Z,66.72
2022-11-21T13:41:55.474Z,66.95
2022-11-21T13:44:36.221Z,67.54
2022-11-21T13:47:39.939Z,67.66
2022-11-21T13:50:25.186Z,68.95
2022-11-21T13:53:20.185Z,70.50
2022-11-21T13:56:00.721Z,69.59
2022-11-21T13:58:34.291Z,69.35
2022-11-21T14:01:09.532Z,69.84
2022-11-21T14:04:21.839Z,70.38
2022-11-21T14:06:49.611Z,70.80
2022-11-21T14:09:20.630Z,70.21
2022-11-21T14:11:55.133Z,69.61
2022-11-21T14:14:33.198Z,70.78
2022-11-21T14:17:14.192Z,71.37
2022-11-21T14:19:42.171Z,71.39
2022-11-21T14:22:16.493Z,70.36
2022-11-21T14:24:44.751Z,71.89
2022-11-21T14:27:21.233Z,72.39
2022-11-21T14:29:48.843Z,72.16
2022-11-21T14:32:16.474Z,73.73
2022-11-21T14:34:43.774Z,72.57
2022-11-21T14:37:13.075Z,75.31
2022-11-21T14:39:44.476Z,74.96
2022-11-21T14:42:15.358Z,72.96
2022-11-21T14:44:43.346Z,73.79
2022-11-21T14:47:24.658Z,73.01
2022-11-21T14:50:00.962Z,72.68
2022-11-21T14:52:32.065Z,72.48
2022-11-21T14:57:49.253Z,71.75
2022-11-21T15:03:20.918Z,72.10
2022-11-21T15:06:02.545Z,75.03
2022-11-21T15:11:39.002Z,74.94
2022-11-21T15:14:37.033Z,71.77
2022-11-21T15:17:09.175Z,72.17
2022-11-21T15:19:36.549Z,73.88
2022-11-21T15:22:05.080Z,74.98
2022-11-21T15:24:43.324Z,75.72
2022-11-21T15:27:25.904Z,75.99
2022-11-21T15:30:02.555Z,75.00
2022-11-21T15:32:33.521Z,75.94
2022-11-21T15:35:31.906Z,76.11
2022-11-21T15:37:59.581Z,75.72
2022-11-21T15:40:27.215Z,75.93
2022-11-21T15:42:54.524Z,74.29
2022-11-21T15:45:25.536Z,72.65
2022-11-21T15:47:55.900Z,75.36
2022-11-21T15:50:24.929Z,74.54
2022-11-21T15:52:53.334Z,75.00
2022-11-21T15:55:29.211Z,75.46
2022-11-21T15:57:57.128Z,74.83
2022-11-21T16:00:24.482Z,73.60
2022-11-21T16:02:52.069Z,74.98
2022-11-21T16:05:19.403Z,74.84
2022-11-21T16:07:48.470Z,74.35
2022-11-21T16:10:22.604Z,75.18
2022-11-21T16:12:53.379Z,73.68
2022-11-21T16:15:21.163Z,73.48
2022-11-21T16:17:48.466Z,74.14
2022-11-21T16:20:15.928Z,78.03
2022-11-21T16:22:47.674Z,77.69
2022-11-21T16:25:16.071Z,75.53
2022-11-21T16:27:43.707Z,74.56
2022-11-21T16:30:12.473Z,73.89
2022-11-21T16:32:39.834Z,75.13
2022-11-21T16:35:08.300Z,74.29
2022-11-21T16:37:35.688Z,73.51
2022-11-21T16:40:03.163Z,73.83
2022-11-21T16:42:31.075Z,74.02
2022-11-21T16:44:59.765Z,71.96
2022-11-21T16:47:27.209Z,70.08
2022-11-21T16:49:54.853Z,71.20
2022-11-21T16:52:22.281Z,71.71
2022-11-21T16:54:50.131Z,71.48
2022-11-21T16:57:17.802Z,68.82
2022-11-21T16:59:45.107Z,69.10
2022-11-21T17:02:13.001Z,70.93
2022-11-21T17:04:40.906Z,70.84
2022-11-21T17:07:08.512Z,70.12
2022-11-21T17:09:36.027Z,70.29
2022-11-21T17:12:04.210Z,70.59
2022-11-21T17:14:32.023Z,70.20
2022-11-21T17:16:59.642Z,71.46
2022-11-21T17:19:28.228Z,71.72
2022-11-21T17:21:56.815Z,71.97
2022-11-21T17:24:24.197Z,70.44
2022-11-21T17:26:52.327Z,69.17
2022-11-21T17:29:20.193Z,70.32
2022-11-21T17:31:50.285Z,72.30
2022-11-21T17:34:19.362Z,72.94
2022-11-21T17:36:47.243Z,75.46
2022-11-21T17:39:14.804Z,74.30
2022-11-21T17:41:42.846Z,72.48
2022-11-21T17:44:14.239Z,72.55
2022-11-21T17:46:42.031Z,74.53
2022-11-21T17:49:09.980Z,73.62
2022-11-21T17:51:38.203Z,73.30
2022-11-21T17:54:09.004Z,74.80
2022-11-21T17:56:42.477Z,73.32
2022-11-21T17:59:13.637Z,73.32
2022-11-21T18:01:41.536Z,71.85
2022-11-21T18:04:14.914Z,73.47
2022-11-21T18:06:43.275Z,74.66
2022-11-21T18:09:11.912Z,74.69
2022-11-21T18:11:40.704Z,74.32
2022-11-21T18:14:10.935Z,72.76
2022-11-21T18:16:39.940Z,71.65
2022-11-21T18:19:13.484Z,73.15
2022-11-21T18:21:41.595Z,73.66
2022-11-21T18:24:09.153Z,74.21
2022-11-21T18:26:38.628Z,73.86
2022-11-21T18:31:57.890Z,74.08
2022-11-21T18:34:26.120Z,72.81
2022-11-21T18:36:54.511Z,70.82
2022-11-21T18:39:28.659Z,73.29
2022-11-21T18:41:56.875Z,73.03
2022-11-21T18:44:24.380Z,72.81
2022-11-21T18:46:52.343Z,73.83
2022-11-21T18:49:20.520Z,74.54
2022-11-21T18:51:48.889Z,73.02
2022-11-21T18:54:17.020Z,72.96
2022-11-21T18:56:45.444Z,73.71
2022-11-21T18:59:13.113Z,73.00
2022-11-21T19:01:41.133Z,73.10
2022-11-21T19:04:12.619Z,73.08
2022-11-21T19:06:40.158Z,73.29
2022-11-21T19:09:09.141Z,73.96
2022-11-21T19:11:38.003Z,74.96
2022-11-21T19:14:06.036Z,75.06
2022-11-21T19:16:36.929Z,75.48
2022-11-21T19:19:33.675Z,73.91
2022-11-21T19:22:01.506Z,71.62
2022-11-21T19:24:29.760Z,73.28
2022-11-21T19:26:57.325Z,74.51
2022-11-21T19:29:25.231Z,73.92
2022-11-21T19:31:53.455Z,76.40
2022-11-21T19:34:21.253Z,75.13
2022-11-21T19:36:48.669Z,75.05
2022-11-21T19:39:17.827Z,75.54
2022-11-21T19:41:48.785Z,76.79
2022-11-21T19:44:17.144Z,79.28
2022-11-21T19:46:45.492Z,77.49
2022-11-21T19:49:13.548Z,78.91
2022-11-21T19:51:42.281Z,76.00
2022-11-21T19:54:12.288Z,76.30
2022-11-21T19:56:40.746Z,75.95
2022-11-21T19:59:11.760Z,76.30
2022-11-21T20:01:39.964Z,74.73
2022-11-21T20:04:07.735Z,73.53
2022-11-21T20:06:38.899Z,73.48
2022-11-21T20:09:09.041Z,72.84
2022-11-21T20:11:40.845Z,72.96
2022-11-21T20:14:10.188Z,76.31
2022-11-21T20:16:40.642Z,78.98
2022-11-21T20:19:10.616Z,79.14
2022-11-21T20:21:39.832Z,75.33
2022-11-21T20:24:07.772Z,75.01
2022-11-21T20:26:37.130Z,75.96
2022-11-21T20:29:06.866Z,75.63
2022-11-21T20:31:37.689Z,76.96
2022-11-21T20:34:09.113Z,75.19
2022-11-21T20:36:38.212Z,75.40
2022-11-21T20:39:11.453Z,75.40
2022-11-21T20:41:39.621Z,74.00
2022-11-21T20:47:01.002Z,74.67
2022-11-21T20:49:28.850Z,73.92
2022-11-21T20:54:45.174Z,77.78
2022-11-21T20:57:15.291Z,79.38
2022-11-21T20:59:43.778Z,79.50
2022-11-21T21:02:15.108Z,77.74
2022-11-21T21:04:43.610Z,75.87
2022-11-21T21:07:11.604Z,76.57
2022-11-21T21:09:39.548Z,75.78
2022-11-21T21:12:07.123Z,74.61
2022-11-21T21:14:34.935Z,75.02
2022-11-21T21:17:02.448Z,77.43
2022-11-21T21:19:30.059Z,76.60
2022-11-21T21:21:58.141Z,77.76
2022-11-21T21:24:27.705Z,79.64
2022-11-21T21:26:55.009Z,79.16
2022-11-21T21:29:22.791Z,78.41
2022-11-21T21:31:52.079Z,77.17
2022-11-21T21:34:21.128Z,76.97
2022-11-21T21:36:49.207Z,79.07
2022-11-21T21:39:16.731Z,79.08
2022-11-21T21:41:45.948Z,77.18
2022-11-21T21:44:14.433Z,77.64
2022-11-21T21:46:41.801Z,78.53
2022-11-21T21:49:09.186Z,79.18
2022-11-21T21:51:37.393Z,79.78
2022-11-21T21:54:05.533Z,81.81
2022-11-21T21:56:33.704Z,80.90
2022-11-21T21:59:01.331Z,82.80
2022-11-21T22:01:30.427Z,81.16
2022-11-21T22:04:02.711Z,80.83
2022-11-21T22:06:32.847Z,81.33
2022-11-21T22:09:00.738Z,80.77
2022-11-21T22:11:32.763Z,79.33
2022-11-21T22:14:02.756Z,77.48
2022-11-21T22:16:30.525Z,76.83
2022-11-21T22:18:57.965Z,76.89
2022-11-21T22:21:32.577Z,78.53
2022-11-21T22:24:24.148Z,77.82
2022-11-21T22:26:49.524Z,78.75
2022-11-21T22:29:16.958Z,79.60
2022-11-21T22:31:44.305Z,78.05
2022-11-21T22:34:13.454Z,79.00
2022-11-21T22:36:41.553Z,80.43
2022-11-21T22:39:09.143Z,78.39
2022-11-21T22:41:36.765Z,77.55
2022-11-21T22:44:04.164Z,77.98
2022-11-21T22:46:31.646Z,79.66
2022-11-21T22:48:59.651Z,79.80
2022-11-21T22:51:31.316Z,80.06
2022-11-21T22:53:58.888Z,79.63
2022-11-21T22:56:27.729Z,80.77
2022-11-21T22:58:56.043Z,80.97
2022-11-21T23:01:25.451Z,80.60
2022-11-21T23:03:53.358Z,81.20
2022-11-21T23:06:23.689Z,81.14
2022-11-21T23:08:55.943Z,81.18
2022-11-21T23:11:26.291Z,82.88
2022-11-21T23:13:55.529Z,84.20
2022-11-21T23:16:23.175Z,80.76
2022-11-21T23:18:54.047Z,81.27
2022-11-21T23:21:21.869Z,81.89
2022-11-21T23:23:49.493Z,82.22
2022-11-21T23:26:17.029Z,80.03
2022-11-21T23:28:44.663Z,79.51
2022-11-21T23:31:12.387Z,78.96
2022-11-21T23:33:39.734Z,81.89
2022-11-21T23:36:07.437Z,79.70
2022-11-21T23:38:34.809Z,80.44
2022-11-21T23:41:02.136Z,80.88
2022-11-21T23:43:29.694Z,82.21
2022-11-21T23:45:57.008Z,83.57
2022-11-21T23:48:24.388Z,84.32
2022-11-21T23:50:52.341Z,81.07
2022-11-21T23:53:20.294Z,81.96
2022-11-21T23:55:48.370Z,82.76
2022-11-21T23:58:16.294Z,84.53
